الصفحة الرئيسية
METAR-TAF:

METAR-TAF

مطار :

مطار دنفر الدولي

دنفر, كولورادو, الولايات المتحدة

دائرة عرض: 39-49-58N, خط طول: 104-39-27W, ارتفاع: 1655 متر

مراقبة الطقس الحالي

تاريخ ووقت الإصدار 18 دقيقة قبل الساعة 14:53UTC
ريح 5 عقدة من الغرب/الجنوب الغربي
درجة الحرارة 1°درجة مئوية
الرطوبة 31%
ضغط 1025 hPa
الرؤية: 16.1 كم
سماء صافية

METAR: KDEN 141453Z 25005KT 10SM CLR 01/M14 A3028 RMK AO2 SLP276 T00061144 53010

زمن: 08:11 (15:11 UTC)

توقعات

تاريخ ووقت الإصدار 23 دقيقة قبل الساعة 14:48UTC
التوقعات صالحة من14 الساعة 15 UTC إلى 15 الساعة 18 UTC
ريح 6 عقدة من الجنوب
الرؤية: 10 كم
غيوم قليلة على ارتفاع 22000 قدم
من 14 الساعة 2000 UTC
ريح 8 عقدة من الشرق/الجنوب الشرقي
الرؤية: 10 كم
غيوم قليلة على ارتفاع 22000 قدم
من 15 الساعة 0100 UTC
ريح 7 عقدة من الجنوب/الجنوب الشرقي
الرؤية: 10 كم
غيوم قليلة على ارتفاع 22000 قدم
من 15 الساعة 1400 UTC
ريح 6 عقدة من الجنوب الغربي
الرؤية: 10 كم
غيوم مفككة على ارتفاع 20000 قدم

TAF: KDEN 141448Z 1415/1518 19006KT P6SM FEW220 FM142000 12008KT P6SM FEW220 FM150100 15007KT P6SM FEW220 FM151400 23006KT P6SM BKN200

أرصاد الطقس والتوقعات من أكثر من 4000 مطار (تقارير الطقس للمطار METAR والتنبؤ بالطقس بالمطارTAF).

المحطات المتاحة هي النقط الصفراء والحمراء على الخريطة.

حرك المؤشر فوق النقطة لمعرفة اسم المحطة.

ثم انقر لمعرفة أرصاد وتوقعات الطقس.

لتغيير الخارطة: اضغط على الأزرار الخضراء مع رمز الصليب الأسود للتكبير. على الزر الأخضر مع شرطة للتصغير، أو على الأسهم الخضراء للخرائط المجاورة.


METAR-TAF: